sensor_id;sensor_type;location;lat;lon;timestamp;pressure;altitude;pressure_sealevel;temperature;humidity
5812;BME280;2932;52.400;9.558;2023-02-26T00:01:31;100912.06;;;5.84;58.00
5812;BME280;2932;52.400;9.558;2023-02-26T00:04:00;100905.66;;;5.75;58.51
5812;BME280;2932;52.400;9.558;2023-02-26T00:06:26;100915.34;;;5.58;58.41
5812;BME280;2932;52.400;9.558;2023-02-26T00:08:53;100927.78;;;6.78;65.79
5812;BME280;2932;52.400;9.558;2023-02-26T00:11:19;100929.63;;;7.53;62.11
5812;BME280;2932;52.400;9.558;2023-02-26T00:13:44;100928.19;;;7.24;58.37
5812;BME280;2932;52.400;9.558;2023-02-26T00:18:49;100931.63;;;6.32;57.47
5812;BME280;2932;52.400;9.558;2023-02-26T00:21:16;100936.44;;;6.13;57.51
5812;BME280;2932;52.400;9.558;2023-02-26T00:23:42;100943.66;;;6.09;57.81
5812;BME280;2932;52.400;9.558;2023-02-26T00:26:09;100941.97;;;5.99;57.95
5812;BME280;2932;52.400;9.558;2023-02-26T00:28:35;100946.47;;;5.95;57.66
5812;BME280;2932;52.400;9.558;2023-02-26T00:31:00;100946.34;;;5.86;58.03
5812;BME280;2932;52.400;9.558;2023-02-26T00:33:26;100952.75;;;5.82;58.23
5812;BME280;2932;52.400;9.558;2023-02-26T00:35:56;100954.16;;;5.79;58.12
5812;BME280;2932;52.400;9.558;2023-02-26T00:38:25;100956.91;;;5.65;58.33
5812;BME280;2932;52.400;9.558;2023-02-26T00:40:51;100969.31;;;5.77;58.31
5812;BME280;2932;52.400;9.558;2023-02-26T00:43:21;100964.44;;;5.46;58.87
5812;BME280;2932;52.400;9.558;2023-02-26T00:51:46;100981.22;;;5.58;58.55
5812;BME280;2932;52.400;9.558;2023-02-26T00:53:56;100985.47;;;5.51;58.65
5812;BME280;2932;52.400;9.558;2023-02-26T00:56:23;100983.97;;;5.58;58.29
5812;BME280;2932;52.400;9.558;2023-02-26T00:58:48;100986.25;;;5.38;58.75
5812;BME280;2932;52.400;9.558;2023-02-26T01:01:14;100988.81;;;5.48;58.76
5812;BME280;2932;52.400;9.558;2023-02-26T01:03:39;100994.16;;;5.25;58.88
5812;BME280;2932;52.400;9.558;2023-02-26T01:06:10;100987.69;;;5.35;58.97
5812;BME280;2932;52.400;9.558;2023-02-26T01:08:53;100988.88;;;5.29;59.19
5812;BME280;2932;52.400;9.558;2023-02-26T01:11:19;100992.00;;;5.55;58.92
5812;BME280;2932;52.400;9.558;2023-02-26T01:13:44;100998.22;;;5.28;59.37
5812;BME280;2932;52.400;9.558;2023-02-26T01:16:13;100993.75;;;5.32;59.23
5812;BME280;2932;52.400;9.558;2023-02-26T01:18:51;100987.84;;;5.25;59.55
5812;BME280;2932;52.400;9.558;2023-02-26T01:21:24;100992.13;;;5.31;59.07
5812;BME280;2932;52.400;9.558;2023-02-26T01:23:52;100996.06;;;5.25;59.41
5812;BME280;2932;52.400;9.558;2023-02-26T01:26:24;100991.19;;;5.08;59.38
5812;BME280;2932;52.400;9.558;2023-02-26T01:28:51;100992.88;;;5.04;59.70
5812;BME280;2932;52.400;9.558;2023-02-26T01:34:38;100997.63;;;5.17;59.51
5812;BME280;2932;52.400;9.558;2023-02-26T01:43:10;101014.28;;;5.34;59.74
5812;BME280;2932;52.400;9.558;2023-02-26T01:46:17;101015.41;;;5.20;60.10
5812;BME280;2932;52.400;9.558;2023-02-26T01:48:55;101022.22;;;5.36;59.98
5812;BME280;2932;52.400;9.558;2023-02-26T01:54:07;101033.16;;;5.55;60.07
5812;BME280;2932;52.400;9.558;2023-02-26T01:56:33;101032.34;;;5.54;59.98
5812;BME280;2932;52.400;9.558;2023-02-26T01:58:59;101029.97;;;5.61;59.95
5812;BME280;2932;52.400;9.558;2023-02-26T02:01:25;101034.06;;;5.64;59.64
5812;BME280;2932;52.400;9.558;2023-02-26T02:03:51;101042.19;;;5.69;59.77
5812;BME280;2932;52.400;9.558;2023-02-26T02:06:20;101043.81;;;5.56;59.34
5812;BME280;2932;52.400;9.558;2023-02-26T02:08:48;101051.06;;;5.33;59.54
5812;BME280;2932;52.400;9.558;2023-02-26T02:11:14;101055.16;;;5.36;60.03
5812;BME280;2932;52.400;9.558;2023-02-26T02:13:51;101065.31;;;5.35;60.07
5812;BME280;2932;52.400;9.558;2023-02-26T02:27:57;101075.72;;;5.52;60.29
5812;BME280;2932;52.400;9.558;2023-02-26T02:33:21;101084.28;;;5.32;60.07
5812;BME280;2932;52.400;9.558;2023-02-26T02:36:19;101093.13;;;5.29;60.64
5812;BME280;2932;52.400;9.558;2023-02-26T02:38:45;101090.44;;;5.43;60.60
5812;BME280;2932;52.400;9.558;2023-02-26T02:41:30;101095.63;;;5.44;60.29
5812;BME280;2932;52.400;9.558;2023-02-26T02:44:04;101100.75;;;5.32;60.71
5812;BME280;2932;52.400;9.558;2023-02-26T02:46:33;101096.66;;;5.48;60.28
5812;BME280;2932;52.400;9.558;2023-02-26T02:49:13;101095.72;;;5.20;61.18
5812;BME280;2932;52.400;9.558;2023-02-26T02:51:51;101103.38;;;5.05;61.37
5812;BME280;2932;52.400;9.558;2023-02-26T02:54:23;101104.44;;;5.41;61.08
5812;BME280;2932;52.400;9.558;2023-02-26T02:56:55;101100.13;;;5.02;61.39
5812;BME280;2932;52.400;9.558;2023-02-26T02:59:29;101106.13;;;5.05;60.86
5812;BME280;2932;52.400;9.558;2023-02-26T03:02:05;101106.84;;;5.29;61.15
5812;BME280;2932;52.400;9.558;2023-02-26T03:04:32;101105.41;;;5.18;61.48
5812;BME280;2932;52.400;9.558;2023-02-26T03:06:57;101111.59;;;5.23;61.27
5812;BME280;2932;52.400;9.558;2023-02-26T03:09:23;101117.44;;;5.35;61.14
5812;BME280;2932;52.400;9.558;2023-02-26T03:11:48;101115.47;;;5.55;60.55
5812;BME280;2932;52.400;9.558;2023-02-26T03:14:14;101113.66;;;5.64;60.59
5812;BME280;2932;52.400;9.558;2023-02-26T03:19:44;101121.59;;;5.65;60.60
5812;BME280;2932;52.400;9.558;2023-02-26T03:22:36;101130.09;;;5.50;60.76
5812;BME280;2932;52.400;9.558;2023-02-26T03:25:17;101122.91;;;5.54;60.60
5812;BME280;2932;52.400;9.558;2023-02-26T03:28:00;101135.81;;;5.54;60.66
5812;BME280;2932;52.400;9.558;2023-02-26T03:31:05;101132.94;;;5.45;60.90
5812;BME280;2932;52.400;9.558;2023-02-26T03:36:18;101143.38;;;5.43;60.77
5812;BME280;2932;52.400;9.558;2023-02-26T03:44:42;101160.97;;;5.23;61.18
5812;BME280;2932;52.400;9.558;2023-02-26T03:47:11;101162.44;;;5.34;61.28
5812;BME280;2932;52.400;9.558;2023-02-26T03:49:45;101170.75;;;5.29;61.02
5812;BME280;2932;52.400;9.558;2023-02-26T03:52:13;101176.38;;;5.38;61.10
5812;BME280;2932;52.400;9.558;2023-02-26T03:54:51;101175.72;;;5.46;61.23
5812;BME280;2932;52.400;9.558;2023-02-26T03:57:18;101182.63;;;5.44;61.55
5812;BME280;2932;52.400;9.558;2023-02-26T03:59:43;101188.25;;;5.33;61.48
5812;BME280;2932;52.400;9.558;2023-02-26T04:02:19;101189.66;;;5.50;61.21
5812;BME280;2932;52.400;9.558;2023-02-26T04:04:49;101192.84;;;5.38;61.45
5812;BME280;2932;52.400;9.558;2023-02-26T04:07:17;101195.88;;;5.36;61.51
5812;BME280;2932;52.400;9.558;2023-02-26T04:09:45;101209.50;;;5.60;61.13
5812;BME280;2932;52.400;9.558;2023-02-26T04:12:11;101196.47;;;5.33;61.14
5812;BME280;2932;52.400;9.558;2023-02-26T04:14:36;101205.75;;;5.38;61.36
5812;BME280;2932;52.400;9.558;2023-02-26T04:17:02;101201.66;;;5.35;61.52
5812;BME280;2932;52.400;9.558;2023-02-26T04:19:27;101205.91;;;5.46;61.41
5812;BME280;2932;52.400;9.558;2023-02-26T04:21:52;101205.00;;;5.51;61.12
5812;BME280;2932;52.400;9.558;2023-02-26T04:24:18;101217.19;;;5.45;61.56
5812;BME280;2932;52.400;9.558;2023-02-26T04:26:43;101215.41;;;5.54;61.17
5812;BME280;2932;52.400;9.558;2023-02-26T04:29:09;101222.53;;;5.55;61.11
5812;BME280;2932;52.400;9.558;2023-02-26T04:31:35;101221.56;;;5.46;61.16
5812;BME280;2932;52.400;9.558;2023-02-26T04:34:00;101227.72;;;5.56;61.07
5812;BME280;2932;52.400;9.558;2023-02-26T04:36:26;101228.34;;;5.29;60.94
5812;BME280;2932;52.400;9.558;2023-02-26T04:38:51;101231.09;;;5.29;61.30
5812;BME280;2932;52.400;9.558;2023-02-26T04:41:16;101227.13;;;5.41;61.01
5812;BME280;2932;52.400;9.558;2023-02-26T04:43:41;101237.03;;;5.36;60.71
5812;BME280;2932;52.400;9.558;2023-02-26T04:46:07;101243.84;;;5.20;61.08
5812;BME280;2932;52.400;9.558;2023-02-26T04:48:32;101238.94;;;4.98;61.04
5812;BME280;2932;52.400;9.558;2023-02-26T04:50:58;101254.22;;;5.23;60.94
5812;BME280;2932;52.400;9.558;2023-02-26T04:53:23;101256.09;;;5.28;61.33
5812;BME280;2932;52.400;9.558;2023-02-26T04:55:48;101260.09;;;5.17;60.94
5812;BME280;2932;52.400;9.558;2023-02-26T04:58:14;101268.09;;;5.32;60.53
5812;BME280;2932;52.400;9.558;2023-02-26T05:00:40;101264.41;;;5.42;60.52
5812;BME280;2932;52.400;9.558;2023-02-26T05:03:05;101268.09;;;5.32;60.44
5812;BME280;2932;52.400;9.558;2023-02-26T05:05:31;101271.97;;;5.31;60.63
5812;BME280;2932;52.400;9.558;2023-02-26T05:07:57;101282.41;;;5.29;60.44
5812;BME280;2932;52.400;9.558;2023-02-26T05:10:23;101281.66;;;5.23;60.46
5812;BME280;2932;52.400;9.558;2023-02-26T05:12:49;101281.63;;;5.05;60.24
5812;BME280;2932;52.400;9.558;2023-02-26T05:15:14;101287.44;;;5.22;60.47
5812;BME280;2932;52.400;9.558;2023-02-26T05:17:40;101284.69;;;5.22;60.50
5812;BME280;2932;52.400;9.558;2023-02-26T05:20:06;101300.34;;;5.21;60.15
5812;BME280;2932;52.400;9.558;2023-02-26T05:22:34;101295.09;;;5.25;60.46
5812;BME280;2932;52.400;9.558;2023-02-26T05:25:00;101296.66;;;5.31;60.14
5812;BME280;2932;52.400;9.558;2023-02-26T05:27:25;101316.31;;;5.38;59.81
5812;BME280;2932;52.400;9.558;2023-02-26T05:29:51;101313.84;;;5.18;59.26
5812;BME280;2932;52.400;9.558;2023-02-26T05:32:16;101316.72;;;5.08;60.41
5812;BME280;2932;52.400;9.558;2023-02-26T05:34:41;101318.00;;;5.15;59.77
5812;BME280;2932;52.400;9.558;2023-02-26T05:37:06;101322.25;;;5.02;60.00
5812;BME280;2932;52.400;9.558;2023-02-26T05:39:32;101326.03;;;5.07;60.12
5812;BME280;2932;52.400;9.558;2023-02-26T05:41:57;101329.50;;;5.17;59.97
5812;BME280;2932;52.400;9.558;2023-02-26T05:44:23;101330.59;;;5.16;59.79
5812;BME280;2932;52.400;9.558;2023-02-26T05:46:51;101331.59;;;5.01;59.64
5812;BME280;2932;52.400;9.558;2023-02-26T05:49:16;101335.47;;;4.95;60.05
5812;BME280;2932;52.400;9.558;2023-02-26T05:51:41;101328.91;;;4.96;60.06
5812;BME280;2932;52.400;9.558;2023-02-26T05:54:07;101341.50;;;4.97;59.78
5812;BME280;2932;52.400;9.558;2023-02-26T05:56:33;101344.00;;;4.94;59.87
5812;BME280;2932;52.400;9.558;2023-02-26T05:58:58;101349.94;;;4.77;60.09
5812;BME280;2932;52.400;9.558;2023-02-26T06:01:23;101349.94;;;4.77;59.93
5812;BME280;2932;52.400;9.558;2023-02-26T06:03:49;101350.66;;;4.59;60.37
5812;BME280;2932;52.400;9.558;2023-02-26T06:06:14;101357.19;;;4.63;60.26
5812;BME280;2932;52.400;9.558;2023-02-26T06:08:42;101359.75;;;4.54;60.09
5812;BME280;2932;52.400;9.558;2023-02-26T06:11:08;101369.84;;;4.59;60.51
5812;BME280;2932;52.400;9.558;2023-02-26T06:13:33;101375.50;;;4.39;60.54
5812;BME280;2932;52.400;9.558;2023-02-26T06:15:58;101382.09;;;4.38;60.99
5812;BME280;2932;52.400;9.558;2023-02-26T06:18:24;101378.91;;;4.20;60.60
5812;BME280;2932;52.400;9.558;2023-02-26T06:20:49;101381.88;;;4.29;61.03
5812;BME280;2932;52.400;9.558;2023-02-26T06:23:14;101395.41;;;4.49;60.84
5812;BME280;2932;52.400;9.558;2023-02-26T06:25:40;101390.59;;;4.36;61.19
5812;BME280;2932;52.400;9.558;2023-02-26T06:28:07;101399.56;;;4.42;60.76
5812;BME280;2932;52.400;9.558;2023-02-26T06:30:32;101408.38;;;4.39;60.98
5812;BME280;2932;52.400;9.558;2023-02-26T06:32:57;101405.41;;;4.30;60.81
5812;BME280;2932;52.400;9.558;2023-02-26T06:35:23;101407.19;;;4.11;61.09
5812;BME280;2932;52.400;9.558;2023-02-26T06:37:48;101414.63;;;4.00;61.05
5812;BME280;2932;52.400;9.558;2023-02-26T06:40:14;101420.25;;;3.75;61.56
5812;BME280;2932;52.400;9.558;2023-02-26T06:42:39;101422.06;;;3.99;61.93
5812;BME280;2932;52.400;9.558;2023-02-26T06:45:05;101420.59;;;4.12;61.57
5812;BME280;2932;52.400;9.558;2023-02-26T06:47:30;101420.97;;;4.40;61.28
5812;BME280;2932;52.400;9.558;2023-02-26T06:49:55;101425.81;;;4.48;61.29
5812;BME280;2932;52.400;9.558;2023-02-26T06:52:21;101431.06;;;4.44;60.93
5812;BME280;2932;52.400;9.558;2023-02-26T06:54:46;101443.50;;;4.65;60.75
5812;BME280;2932;52.400;9.558;2023-02-26T06:57:12;101454.81;;;4.88;60.42
5812;BME280;2932;52.400;9.558;2023-02-26T06:59:37;101454.28;;;4.86;60.38
5812;BME280;2932;52.400;9.558;2023-02-26T07:02:02;101452.91;;;4.88;60.62
5812;BME280;2932;52.400;9.558;2023-02-26T07:04:28;101456.38;;;4.99;60.18
5812;BME280;2932;52.400;9.558;2023-02-26T07:06:53;101455.63;;;4.88;59.99
5812;BME280;2932;52.400;9.558;2023-02-26T07:09:19;101460.56;;;4.91;60.30
5812;BME280;2932;52.400;9.558;2023-02-26T07:11:44;101459.41;;;4.97;60.21
5812;BME280;2932;52.400;9.558;2023-02-26T07:14:10;101462.72;;;5.23;60.08
5812;BME280;2932;52.400;9.558;2023-02-26T07:16:35;101471.22;;;5.22;59.65
5812;BME280;2932;52.400;9.558;2023-02-26T07:19:00;101479.38;;;5.32;59.59
5812;BME280;2932;52.400;9.558;2023-02-26T07:21:26;101479.94;;;5.29;58.95
5812;BME280;2932;52.400;9.558;2023-02-26T07:23:51;101486.16;;;5.40;59.27
5812;BME280;2932;52.400;9.558;2023-02-26T07:26:16;101483.06;;;5.46;59.08
5812;BME280;2932;52.400;9.558;2023-02-26T07:28:42;101491.19;;;5.56;58.79
5812;BME280;2932;52.400;9.558;2023-02-26T07:31:07;101488.50;;;5.22;58.44
5812;BME280;2932;52.400;9.558;2023-02-26T07:33:32;101498.97;;;5.49;58.86
5812;BME280;2932;52.400;9.558;2023-02-26T07:35:59;101504.22;;;5.46;58.67
5812;BME280;2932;52.400;9.558;2023-02-26T07:38:24;101515.97;;;5.75;58.40
5812;BME280;2932;52.400;9.558;2023-02-26T07:40:50;101509.59;;;5.80;58.18
5812;BME280;2932;52.400;9.558;2023-02-26T07:43:18;101519.84;;;5.98;58.15
5812;BME280;2932;52.400;9.558;2023-02-26T07:45:43;101523.22;;;6.14;57.92
5812;BME280;2932;52.400;9.558;2023-02-26T07:48:08;101527.25;;;6.21;57.85
5812;BME280;2932;52.400;9.558;2023-02-26T07:50:34;101536.78;;;6.48;57.10
5812;BME280;2932;52.400;9.558;2023-02-26T07:52:59;101526.94;;;6.23;57.66
5812;BME280;2932;52.400;9.558;2023-02-26T07:55:25;101543.59;;;6.31;57.15
5812;BME280;2932;52.400;9.558;2023-02-26T07:57:51;101547.59;;;6.20;57.24
5812;BME280;2932;52.400;9.558;2023-02-26T08:00:17;101547.59;;;6.20;56.76
5812;BME280;2932;52.400;9.558;2023-02-26T08:02:42;101547.81;;;6.00;57.08
5812;BME280;2932;52.400;9.558;2023-02-26T08:05:08;101549.50;;;6.20;56.81
5812;BME280;2932;52.400;9.558;2023-02-26T08:07:33;101556.34;;;6.22;57.24
5812;BME280;2932;52.400;9.558;2023-02-26T08:09:59;101556.69;;;6.40;57.25
5812;BME280;2932;52.400;9.558;2023-02-26T08:12:24;101558.63;;;6.58;56.94
5812;BME280;2932;52.400;9.558;2023-02-26T08:14:49;101559.63;;;6.43;56.14
5812;BME280;2932;52.400;9.558;2023-02-26T08:17:15;101558.25;;;6.46;56.38
5812;BME280;2932;52.400;9.558;2023-02-26T08:19:40;101564.34;;;6.61;55.87
5812;BME280;2932;52.400;9.558;2023-02-26T08:22:06;101575.06;;;7.00;55.89
5812;BME280;2932;52.400;9.558;2023-02-26T08:24:31;101575.88;;;7.33;55.37
5812;BME280;2932;52.400;9.558;2023-02-26T08:26:57;101577.59;;;7.29;54.53
5812;BME280;2932;52.400;9.558;2023-02-26T08:29:22;101590.63;;;7.24;54.58
5812;BME280;2932;52.400;9.558;2023-02-26T08:31:48;101588.59;;;7.16;54.75
5812;BME280;2932;52.400;9.558;2023-02-26T08:34:13;101594.19;;;7.89;54.87
5812;BME280;2932;52.400;9.558;2023-02-26T08:36:39;101595.59;;;7.87;54.06
5812;BME280;2932;52.400;9.558;2023-02-26T08:39:05;101601.13;;;7.87;52.63
5812;BME280;2932;52.400;9.558;2023-02-26T08:41:31;101599.28;;;8.10;53.47
5812;BME280;2932;52.400;9.558;2023-02-26T08:43:58;101612.56;;;8.21;52.61
5812;BME280;2932;52.400;9.558;2023-02-26T08:46:24;101606.88;;;8.31;51.93
5812;BME280;2932;52.400;9.558;2023-02-26T08:48:49;101618.31;;;8.66;52.32
5812;BME280;2932;52.400;9.558;2023-02-26T08:51:14;101619.63;;;8.55;52.38
5812;BME280;2932;52.400;9.558;2023-02-26T08:53:40;101624.38;;;8.90;51.45
5812;BME280;2932;52.400;9.558;2023-02-26T08:56:06;101627.00;;;9.09;51.40
5812;BME280;2932;52.400;9.558;2023-02-26T08:58:31;101628.22;;;9.03;50.23
5812;BME280;2932;52.400;9.558;2023-02-26T09:00:56;101639.44;;;8.71;50.00
5812;BME280;2932;52.400;9.558;2023-02-26T09:03:22;101642.66;;;9.00;50.61
5812;BME280;2932;52.400;9.558;2023-02-26T09:05:47;101637.19;;;8.59;49.69
5812;BME280;2932;52.400;9.558;2023-02-26T09:08:14;101643.63;;;9.18;50.25
5812;BME280;2932;52.400;9.558;2023-02-26T09:10:40;101642.31;;;8.79;49.44
5812;BME280;2932;52.400;9.558;2023-02-26T09:13:06;101646.56;;;8.85;49.79
5812;BME280;2932;52.400;9.558;2023-02-26T09:15:32;101656.25;;;8.96;49.07
5812;BME280;2932;52.400;9.558;2023-02-26T09:17:57;101657.16;;;9.42;49.53
5812;BME280;2932;52.400;9.558;2023-02-26T09:20:23;101661.00;;;9.54;49.07
5812;BME280;2932;52.400;9.558;2023-02-26T09:22:48;101668.56;;;9.93;48.95
5812;BME280;2932;52.400;9.558;2023-02-26T09:25:13;101653.81;;;10.29;47.56
5812;BME280;2932;52.400;9.558;2023-02-26T09:27:39;101661.28;;;9.97;48.22
5812;BME280;2932;52.400;9.558;2023-02-26T09:30:05;101659.22;;;10.12;48.28
5812;BME280;2932;52.400;9.558;2023-02-26T09:32:31;101655.31;;;10.13;47.22
5812;BME280;2932;52.400;9.558;2023-02-26T09:34:56;101662.66;;;10.40;47.53
5812;BME280;2932;52.400;9.558;2023-02-26T09:37:22;101667.75;;;9.93;47.16
5812;BME280;2932;52.400;9.558;2023-02-26T09:39:47;101666.38;;;10.13;47.70
5812;BME280;2932;52.400;9.558;2023-02-26T09:45:14;101672.44;;;10.54;46.75
5812;BME280;2932;52.400;9.558;2023-02-26T09:47:48;101666.09;;;10.54;46.58
5812;BME280;2932;52.400;9.558;2023-02-26T09:55:30;101667.00;;;10.89;45.36
5812;BME280;2932;52.400;9.558;2023-02-26T09:58:01;101673.41;;;11.07;45.07
5812;BME280;2932;52.400;9.558;2023-02-26T10:05:45;101700.31;;;11.32;44.16
5812;BME280;2932;52.400;9.558;2023-02-26T10:08:16;101696.41;;;11.42;43.95
5812;BME280;2932;52.400;9.558;2023-02-26T10:16:34;101690.88;;;11.93;43.66
5812;BME280;2932;52.400;9.558;2023-02-26T10:19:10;101707.09;;;12.29;43.55
5812;BME280;2932;52.400;9.558;2023-02-26T10:21:48;101717.94;;;12.52;42.18
5812;BME280;2932;52.400;9.558;2023-02-26T10:24:20;101717.72;;;12.65;42.31
5812;BME280;2932;52.400;9.558;2023-02-26T10:27:06;101712.94;;;13.04;42.19
5812;BME280;2932;52.400;9.558;2023-02-26T10:29:44;101713.28;;;13.32;41.40
5812;BME280;2932;52.400;9.558;2023-02-26T10:32:45;101717.13;;;12.51;40.79
5812;BME280;2932;52.400;9.558;2023-02-26T10:35:16;101714.72;;;12.79;41.29
5812;BME280;2932;52.400;9.558;2023-02-26T10:37:55;101712.63;;;12.76;41.46
5812;BME280;2932;52.400;9.558;2023-02-26T10:40:33;101720.75;;;13.11;41.26
5812;BME280;2932;52.400;9.558;2023-02-26T10:43:19;101709.69;;;13.31;40.18
5812;BME280;2932;52.400;9.558;2023-02-26T10:51:39;101713.72;;;12.46;39.59
5812;BME280;2932;52.400;9.558;2023-02-26T10:54:26;101716.06;;;12.26;39.70
5812;BME280;2932;52.400;9.558;2023-02-26T10:56:51;101719.34;;;12.28;40.07
5812;BME280;2932;52.400;9.558;2023-02-26T10:59:17;101730.00;;;12.56;40.10
5812;BME280;2932;52.400;9.558;2023-02-26T11:01:43;101725.09;;;12.91;39.78
5812;BME280;2932;52.400;9.558;2023-02-26T11:04:13;101728.63;;;13.09;39.39
5812;BME280;2932;52.400;9.558;2023-02-26T11:09:24;101729.94;;;13.94;38.73
5812;BME280;2932;52.400;9.558;2023-02-26T11:11:53;101734.81;;;14.30;38.25
5812;BME280;2932;52.400;9.558;2023-02-26T11:14:20;101726.63;;;14.13;37.37
5812;BME280;2932;52.400;9.558;2023-02-26T11:16:49;101733.75;;;13.69;37.47
5812;BME280;2932;52.400;9.558;2023-02-26T11:19:19;101735.25;;;13.46;38.16
5812;BME280;2932;52.400;9.558;2023-02-26T11:21:49;101739.44;;;13.01;38.41
5812;BME280;2932;52.400;9.558;2023-02-26T11:24:35;101744.97;;;12.72;38.94
5812;BME280;2932;52.400;9.558;2023-02-26T11:27:04;101748.25;;;12.74;39.43
5812;BME280;2932;52.400;9.558;2023-02-26T11:29:39;101746.28;;;13.04;39.34
5812;BME280;2932;52.400;9.558;2023-02-26T11:32:12;101743.47;;;14.17;38.67
5812;BME280;2932;52.400;9.558;2023-02-26T11:34:45;101731.84;;;15.21;36.79
5812;BME280;2932;52.400;9.558;2023-02-26T11:37:11;101738.03;;;15.79;36.85
5812;BME280;2932;52.400;9.558;2023-02-26T11:39:37;101738.78;;;16.19;35.01
5812;BME280;2932;52.400;9.558;2023-02-26T11:42:03;101738.97;;;16.70;35.69
5812;BME280;2932;52.400;9.558;2023-02-26T11:44:50;101744.44;;;16.82;34.76
5812;BME280;2932;52.400;9.558;2023-02-26T11:47:26;101744.00;;;15.53;35.53
5812;BME280;2932;52.400;9.558;2023-02-26T11:49:55;101741.91;;;16.61;35.61
5812;BME280;2932;52.400;9.558;2023-02-26T11:52:40;101735.25;;;18.06;34.33
5812;BME280;2932;52.400;9.558;2023-02-26T11:55:28;101737.69;;;19.48;32.29
5812;BME280;2932;52.400;9.558;2023-02-26T11:57:55;101735.75;;;20.53;31.94
5812;BME280;2932;52.400;9.558;2023-02-26T12:00:29;101739.03;;;21.72;30.96
5812;BME280;2932;52.400;9.558;2023-02-26T12:03:15;101735.16;;;22.05;30.42
5812;BME280;2932;52.400;9.558;2023-02-26T12:05:40;101741.75;;;22.98;29.66
5812;BME280;2932;52.400;9.558;2023-02-26T12:08:19;101740.41;;;23.77;29.11
5812;BME280;2932;52.400;9.558;2023-02-26T12:22:47;101765.00;;;20.89;29.16
5812;BME280;2932;52.400;9.558;2023-02-26T12:28:18;101755.34;;;23.74;27.94
5812;BME280;2932;52.400;9.558;2023-02-26T12:55:48;101769.00;;;33.00;22.76
5812;BME280;2932;52.400;9.558;2023-02-26T13:20:52;101763.81;;;33.44;22.19
5812;BME280;2932;52.400;9.558;2023-02-26T13:23:22;101761.59;;;33.85;21.85
5812;BME280;2932;52.400;9.558;2023-02-26T13:25:50;101762.41;;;33.58;21.83
5812;BME280;2932;52.400;9.558;2023-02-26T13:28:56;101760.69;;;34.21;21.49
5812;BME280;2932;52.400;9.558;2023-02-26T13:34:40;101762.81;;;33.20;21.89
5812;BME280;2932;52.400;9.558;2023-02-26T13:37:23;101777.94;;;31.78;22.93
5812;BME280;2932;52.400;9.558;2023-02-26T13:44:53;101758.94;;;32.77;22.14
5812;BME280;2932;52.400;9.558;2023-02-26T13:50:34;101751.06;;;33.45;21.10
5812;BME280;2932;52.400;9.558;2023-02-26T13:53:34;101764.25;;;32.04;21.40
5812;BME280;2932;52.400;9.558;2023-02-26T13:56:07;101761.44;;;31.47;21.56
5812;BME280;2932;52.400;9.558;2023-02-26T13:58:39;101757.88;;;31.56;21.76
5812;BME280;2932;52.400;9.558;2023-02-26T14:01:12;101753.31;;;32.73;21.62
5812;BME280;2932;52.400;9.558;2023-02-26T14:04:21;101752.03;;;32.74;20.91
5812;BME280;2932;52.400;9.558;2023-02-26T14:14:44;101746.97;;;32.38;21.29
5812;BME280;2932;52.400;9.558;2023-02-26T14:17:36;101751.59;;;32.36;20.93
5812;BME280;2932;52.400;9.558;2023-02-26T14:22:41;101739.94;;;32.79;21.02
5812;BME280;2932;52.400;9.558;2023-02-26T14:27:36;101749.75;;;32.60;20.53
5812;BME280;2932;52.400;9.558;2023-02-26T14:35:45;101743.53;;;33.20;20.22
5812;BME280;2932;52.400;9.558;2023-02-26T14:38:19;101736.56;;;33.39;19.89
5812;BME280;2932;52.400;9.558;2023-02-26T14:40:48;101745.69;;;32.79;20.78
5812;BME280;2932;52.400;9.558;2023-02-26T14:43:21;101742.00;;;31.08;21.36
5812;BME280;2932;52.400;9.558;2023-02-26T14:45:50;101759.13;;;31.21;21.43
5812;BME280;2932;52.400;9.558;2023-02-26T14:48:17;101756.28;;;31.77;21.42
5812;BME280;2932;52.400;9.558;2023-02-26T14:59:07;101750.16;;;31.88;21.65
5812;BME280;2932;52.400;9.558;2023-02-26T15:01:46;101759.59;;;29.18;22.58
5812;BME280;2932;52.400;9.558;2023-02-26T15:04:38;101766.13;;;27.31;23.71
5812;BME280;2932;52.400;9.558;2023-02-26T15:13:24;101783.78;;;20.74;28.19
5812;BME280;2932;52.400;9.558;2023-02-26T15:15:32;101791.50;;;19.80;29.30
5812;BME280;2932;52.400;9.558;2023-02-26T15:18:25;101788.13;;;18.69;30.83
5812;BME280;2932;52.400;9.558;2023-02-26T15:23:52;101805.75;;;17.22;32.43
5812;BME280;2932;52.400;9.558;2023-02-26T15:26:22;101800.16;;;16.31;33.32
5812;BME280;2932;52.400;9.558;2023-02-26T15:28:49;101810.81;;;15.86;33.73
5812;BME280;2932;52.400;9.558;2023-02-26T15:31:19;101802.84;;;16.00;33.77
5812;BME280;2932;52.400;9.558;2023-02-26T15:33:48;101809.53;;;18.00;32.12
5812;BME280;2932;52.400;9.558;2023-02-26T15:36:16;101802.69;;;20.81;29.72
5812;BME280;2932;52.400;9.558;2023-02-26T15:38:48;101789.34;;;22.99;28.15
5812;BME280;2932;52.400;9.558;2023-02-26T15:41:15;101780.59;;;24.20;27.18
5812;BME280;2932;52.400;9.558;2023-02-26T15:43:47;101784.09;;;23.01;27.83
5812;BME280;2932;52.400;9.558;2023-02-26T15:46:13;101800.34;;;20.86;29.04
5812;BME280;2932;52.400;9.558;2023-02-26T15:48:39;101815.59;;;19.06;31.55
5812;BME280;2932;52.400;9.558;2023-02-26T15:51:12;101828.25;;;17.61;33.48
5812;BME280;2932;52.400;9.558;2023-02-26T15:53:46;101817.19;;;16.42;34.58
5812;BME280;2932;52.400;9.558;2023-02-26T15:56:23;101815.88;;;16.52;34.28
5812;BME280;2932;52.400;9.558;2023-02-26T15:59:02;101808.63;;;16.07;34.65
5812;BME280;2932;52.400;9.558;2023-02-26T16:01:29;101816.44;;;16.01;35.16
5812;BME280;2932;52.400;9.558;2023-02-26T16:03:57;101818.47;;;16.73;34.88
5812;BME280;2932;52.400;9.558;2023-02-26T16:08:55;101817.03;;;19.72;32.38
5812;BME280;2932;52.400;9.558;2023-02-26T16:11:21;101818.47;;;20.18;31.89
5812;BME280;2932;52.400;9.558;2023-02-26T16:13:50;101809.94;;;21.26;30.73
5812;BME280;2932;52.400;9.558;2023-02-26T16:16:25;101814.91;;;22.12;30.09
5812;BME280;2932;52.400;9.558;2023-02-26T16:18:53;101815.88;;;22.59;29.38
5812;BME280;2932;52.400;9.558;2023-02-26T16:21:33;101807.50;;;23.09;29.20
5812;BME280;2932;52.400;9.558;2023-02-26T16:24:02;101812.34;;;23.12;28.82
5812;BME280;2932;52.400;9.558;2023-02-26T16:26:33;101817.88;;;22.51;28.97
5812;BME280;2932;52.400;9.558;2023-02-26T16:29:03;101814.63;;;22.39;29.27
5812;BME280;2932;52.400;9.558;2023-02-26T16:31:30;101827.91;;;21.62;29.60
5812;BME280;2932;52.400;9.558;2023-02-26T16:34:00;101821.28;;;20.52;30.79
5812;BME280;2932;52.400;9.558;2023-02-26T16:36:30;101838.28;;;18.97;32.18